Time;durP1;ratioP1;P1;durP2;ratioP2;P2;SDS_P1;SDS_P2;PMS_P1;PMS_P2;Temp;Humidity;BMP_temperature;BMP_pressure;BME280_temperature;BME280_humidity;BME280_pressure;Samples;Min_cycle;Max_cycle;Signal;HPM_P1;HPM_P2
2021/12/10 00:00:16;;;;;;;13.23;7.47;;;;;;;4.11;70.47;98745.66;4417748;32;34501;-77
2021/12/10 00:02:50;;;;;;;12.88;6.62;;;;;;;4.21;69.65;98748.91;4437460;32;31996;-77
2021/12/10 00:05:29;;;;;;;14.15;7.25;;;;;;;4.42;69.19;98753.53;4453827;32;33652;-77
2021/12/10 00:07:58;;;;;;;16.90;10.05;;;;;;;4.44;69.15;98746.03;4419204;32;34449;-77
2021/12/10 00:10:33;;;;;;;16.50;8.55;;;;;;;4.35;69.82;98755.34;4448618;32;33965;-78
2021/12/10 00:13:04;;;;;;;16.27;7.87;;;;;;;4.26;70.12;98751.91;4439397;32;34264;-76
2021/12/10 00:15:36;;;;;;;18.23;9.65;;;;;;;4.38;69.86;98745.97;4426360;32;33681;-76
2021/12/10 00:18:12;;;;;;;16.98;10.00;;;;;;;4.16;70.43;98737.78;4427258;32;35220;-76
2021/12/10 00:20:41;;;;;;;18.37;9.05;;;;;;;4.40;69.95;98741.19;4439966;32;34711;-76
2021/12/10 00:23:19;;;;;;;15.60;8.80;;;;;;;4.39;69.78;98747.66;4427246;32;33312;-76
2021/12/10 00:25:51;;;;;;;14.80;8.07;;;;;;;4.59;69.17;98759.53;4440101;32;33382;-76
2021/12/10 00:28:41;;;;;;;14.18;7.60;;;;;;;4.30;69.34;98765.94;4439643;32;35228;-75
2021/12/10 00:31:44;;;;;;;15.77;8.20;;;;;;;4.41;69.29;98767.31;4425567;32;32448;-75
2021/12/10 00:34:20;;;;;;;15.95;8.65;;;;;;;4.30;69.54;98764.06;4439488;32;31800;-75
2021/12/10 00:36:50;;;;;;;17.60;8.98;;;;;;;4.34;70.30;98761.81;4426495;32;32224;-75
2021/12/10 00:39:25;;;;;;;15.02;7.95;;;;;;;3.95;70.63;98765.72;4439995;32;34455;-75
2021/12/10 00:41:54;;;;;;;17.50;8.50;;;;;;;3.94;70.34;98768.63;4439531;32;33595;-75
2021/12/10 00:44:22;;;;;;;15.25;8.32;;;;;;;4.30;69.19;98768.66;4427350;32;33930;-75
2021/12/10 00:46:49;;;;;;;16.65;8.50;;;;;;;4.30;69.27;98779.53;4426790;32;34536;-75
2021/12/10 00:49:17;;;;;;;14.02;7.10;;;;;;;4.09;69.87;98779.47;4439127;32;35020;-75
2021/12/10 00:51:48;;;;;;;18.00;8.02;;;;;;;4.17;69.73;98774.78;4439015;32;33789;-75
2021/12/10 00:54:18;;;;;;;16.08;8.45;;;;;;;4.37;68.87;98771.44;4438226;32;33343;-75
2021/12/10 00:56:46;;;;;;;18.48;7.53;;;;;;;4.34;69.35;98766.41;4440712;32;33867;-75
2021/12/10 00:59:20;;;;;;;14.63;8.27;;;;;;;4.27;69.67;98767.16;4416850;32;33082;-75
2021/12/10 01:01:50;;;;;;;33.97;16.62;;;;;;;4.20;69.78;98771.69;4441822;32;34904;-75
2021/12/10 01:04:26;;;;;;;20.23;9.45;;;;;;;4.25;69.87;98774.66;4428581;32;32832;-75
2021/12/10 01:06:58;;;;;;;27.85;12.63;;;;;;;4.11;70.51;98778.25;4428792;32;32372;-75
2021/12/10 01:09:32;;;;;;;22.67;10.80;;;;;;;4.24;70.03;98764.84;4441459;32;34497;-75
2021/12/10 01:12:06;;;;;;;18.75;8.85;;;;;;;4.25;70.07;98763.78;4428411;32;32610;-75
2021/12/10 01:15:19;;;;;;;19.02;8.57;;;;;;;4.47;69.17;98761.13;4415987;32;31878;-75
2021/12/10 01:28:47;;;;;;;;;;;;;;;4.51;69.04;98760.53;4441998;32;33759;-75
2021/12/10 01:31:15;;;;;;;12.52;6.30;;;;;;;4.23;69.81;98762.31;4415890;32;34121;-75
2021/12/10 01:33:48;;;;;;;10.57;6.12;;;;;;;4.41;69.36;98761.88;4428191;32;34704;-75
2021/12/10 01:36:22;;;;;;;11.43;6.07;;;;;;;4.35;69.62;98770.81;4428963;32;33145;-75
2021/12/10 01:38:52;;;;;;;12.88;6.82;;;;;;;4.30;69.31;98771.38;4428594;32;34010;-75
2021/12/10 01:41:23;;;;;;;14.55;6.80;;;;;;;3.96;70.26;98785.56;4428970;32;34324;-75
2021/12/10 01:44:02;;;;;;;12.70;7.28;;;;;;;4.36;68.88;98775.19;4441653;32;33802;-75
2021/12/10 01:46:38;;;;;;;11.30;5.97;;;;;;;4.23;69.52;98779.44;4428968;32;31991;-75
2021/12/10 01:49:12;;;;;;;9.57;5.53;;;;;;;4.18;69.30;98781.03;4441746;32;33731;-75
2021/12/10 01:51:44;;;;;;;10.77;6.07;;;;;;;4.28;69.29;98773.44;4440776;32;34449;-75
2021/12/10 01:54:29;;;;;;;12.10;5.95;;;;;;;4.04;69.53;98782.75;4415938;32;32465;-75
2021/12/10 01:57:02;;;;;;;11.95;5.95;;;;;;;4.46;68.69;98773.84;4415894;32;31792;-75
2021/12/10 01:59:32;;;;;;;11.05;5.50;;;;;;;4.15;68.89;98779.56;4428796;32;34582;-75
2021/12/10 02:02:05;;;;;;;9.32;5.20;;;;;;;4.33;68.73;98768.28;4428352;32;32949;-75
2021/12/10 02:04:40;;;;;;;11.15;5.65;;;;;;;4.51;68.04;98774.13;4428496;32;32478;-75
2021/12/10 02:07:15;;;;;;;26.60;15.30;;;;;;;4.47;68.19;98770.09;4455080;32;33217;-75
2021/12/10 02:09:44;;;;;;;14.73;7.28;;;;;;;4.29;68.47;98775.97;4441441;32;34672;-75
2021/12/10 02:12:19;;;;;;;13.77;7.60;;;;;;;4.13;69.13;98776.19;4428292;32;33901;-75
2021/12/10 02:14:58;;;;;;;10.88;5.65;;;;;;;4.11;69.41;98783.69;4428332;32;33428;-75
2021/12/10 02:17:31;;;;;;;9.93;5.62;;;;;;;3.95;69.79;98776.56;4429316;32;33411;-75
2021/12/10 02:20:14;;;;;;;10.00;6.05;;;;;;;4.18;69.02;98770.19;4441015;32;34473;-75
2021/12/10 02:22:44;;;;;;;10.82;6.15;;;;;;;4.21;69.08;98770.66;4428195;32;32838;-75
2021/12/10 02:25:21;;;;;;;11.10;6.12;;;;;;;4.21;69.21;98772.53;4428456;32;34032;-75
2021/12/10 02:27:49;;;;;;;12.10;6.47;;;;;;;4.05;69.64;98779.00;4428361;32;31558;-75
2021/12/10 02:30:21;;;;;;;11.98;6.12;;;;;;;3.81;70.41;98776.63;4440884;32;34432;-75
2021/12/10 02:32:54;;;;;;;12.00;6.72;;;;;;;3.87;70.12;98789.44;4441042;32;35574;-74
2021/12/10 02:35:25;;;;;;;11.70;6.22;;;;;;;3.91;70.09;98788.00;4428443;32;33972;-75
2021/12/10 02:37:55;;;;;;;11.45;6.10;;;;;;;3.86;70.14;98790.47;4428138;32;31827;-75
2021/12/10 02:40:24;;;;;;;9.73;5.05;;;;;;;3.89;70.27;98792.81;4441014;32;34286;-75
2021/12/10 02:42:55;;;;;;;11.73;5.97;;;;;;;3.99;69.51;98787.91;4440880;32;34560;-75
2021/12/10 02:45:26;;;;;;;11.30;6.37;;;;;;;4.18;68.54;98791.91;4428591;32;34001;-75
2021/12/10 02:47:57;;;;;;;12.80;6.75;;;;;;;4.16;68.65;98792.09;4428237;32;31687;-75
2021/12/10 02:50:29;;;;;;;11.25;6.15;;;;;;;3.97;69.26;98789.97;4440567;32;34516;-75
2021/12/10 02:52:58;;;;;;;13.45;7.35;;;;;;;3.86;69.77;98782.31;4440886;32;34438;-75
2021/12/10 02:55:28;;;;;;;12.82;6.78;;;;;;;3.88;69.72;98777.56;4428051;32;33938;-75
2021/12/10 02:58:02;;;;;;;13.02;7.57;;;;;;;3.99;69.09;98777.03;4440838;32;33397;-75
2021/12/10 03:00:36;;;;;;;14.68;8.23;;;;;;;3.57;70.26;98772.31;4428169;32;33893;-75
2021/12/10 03:03:09;;;;;;;13.43;7.47;;;;;;;3.48;70.38;98768.84;4427848;32;33952;-75
2021/12/10 03:05:37;;;;;;;15.48;7.75;;;;;;;3.36;70.69;98769.50;4441011;32;34726;-75
2021/12/10 03:08:08;;;;;;;14.43;8.27;;;;;;;3.29;70.93;98770.22;4440716;32;33316;-75
2021/12/10 03:10:39;;;;;;;14.23;7.70;;;;;;;3.28;70.71;98775.84;4428245;32;32947;-75
2021/12/10 03:13:13;;;;;;;13.18;7.32;;;;;;;3.40;70.47;98774.34;4440609;32;34192;-75
2021/12/10 03:15:44;;;;;;;15.00;8.48;;;;;;;3.22;70.62;98766.59;4427659;32;32949;-75
2021/12/10 03:18:15;;;;;;;15.82;8.38;;;;;;;3.01;71.74;98768.34;4427538;32;33597;-74
2021/12/10 03:20:45;;;;;;;16.23;8.95;;;;;;;3.03;71.21;98767.13;4427634;32;32211;-75
2021/12/10 03:23:18;;;;;;;17.23;9.15;;;;;;;2.72;72.72;98769.91;4427853;32;35240;-75
2021/12/10 03:25:48;;;;;;;16.33;8.95;;;;;;;2.95;72.28;98770.75;4427689;32;32602;-75
2021/12/10 03:28:16;;;;;;;17.65;9.80;;;;;;;2.98;71.84;98773.09;4454669;32;33756;-75
2021/12/10 03:30:51;;;;;;;18.60;10.20;;;;;;;2.82;72.00;98772.38;4440160;32;33647;-75
2021/12/10 03:33:19;;;;;;;18.55;9.95;;;;;;;3.22;70.61;98776.59;4440512;32;35135;-75
2021/12/10 03:35:48;;;;;;;18.33;10.27;;;;;;;3.20;70.48;98786.78;4427452;32;32459;-75
2021/12/10 03:38:23;;;;;;;18.20;9.98;;;;;;;3.23;70.41;98787.28;4440445;32;33243;-75
2021/12/10 03:40:52;;;;;;;20.17;10.40;;;;;;;3.21;70.62;98791.19;4440566;32;33747;-75
2021/12/10 03:43:24;;;;;;;18.98;10.38;;;;;;;3.23;70.26;98784.56;4427721;32;34578;-75
2021/12/10 03:45:58;;;;;;;21.58;10.60;;;;;;;3.33;70.14;98796.97;4440392;32;34824;-75
2021/12/10 03:48:32;;;;;;;19.58;10.20;;;;;;;3.31;69.95;98787.16;4427684;32;34134;-75
2021/12/10 03:51:03;;;;;;;19.17;10.63;;;;;;;2.98;71.06;98785.81;4440111;32;33635;-75
2021/12/10 03:53:31;;;;;;;23.30;11.52;;;;;;;3.41;70.04;98794.19;4440126;32;34286;-75
2021/12/10 03:56:05;;;;;;;19.98;11.70;;;;;;;3.44;69.67;98791.09;4427701;32;34607;-75
2021/12/10 03:58:33;;;;;;;22.70;12.18;;;;;;;3.52;69.39;98794.56;4427494;32;33521;-75
2021/12/10 04:01:05;;;;;;;20.48;11.70;;;;;;;3.69;69.24;98799.81;4440171;32;33768;-75
2021/12/10 04:03:33;;;;;;;23.98;12.40;;;;;;;3.61;69.01;98793.47;4427718;32;34440;-74
2021/12/10 04:06:01;;;;;;;20.98;11.82;;;;;;;3.52;69.21;98796.44;4427263;32;33846;-75
2021/12/10 04:08:32;;;;;;;22.05;11.93;;;;;;;3.10;70.90;98794.34;4427358;32;33958;-75
2021/12/10 04:11:00;;;;;;;20.88;11.32;;;;;;;3.16;70.89;98789.03;4454107;32;33802;-75
2021/12/10 04:13:28;;;;;;;24.80;13.88;;;;;;;3.30;70.30;98803.63;4427191;32;34620;-75
2021/12/10 04:16:02;;;;;;;25.30;14.07;;;;;;;3.36;70.52;98804.75;4440192;32;34434;-75
2021/12/10 04:18:31;;;;;;;25.90;14.02;;;;;;;3.57;69.47;98803.00;4440016;32;33194;-75
2021/12/10 04:20:59;;;;;;;24.98;13.25;;;;;;;3.52;69.37;98810.00;4439816;32;34691;-75
2021/12/10 04:23:31;;;;;;;23.33;13.60;;;;;;;3.49;69.06;98811.22;4427218;32;33698;-75
2021/12/10 04:26:01;;;;;;;25.15;14.30;;;;;;;3.54;69.26;98814.22;4439662;32;33842;-75
2021/12/10 04:28:32;;;;;;;29.25;14.50;;;;;;;3.38;69.27;98808.12;4427358;32;33235;-75
2021/12/10 04:31:04;;;;;;;25.95;13.50;;;;;;;3.44;69.35;98821.78;4440475;32;33534;-75
2021/12/10 04:33:35;;;;;;;28.70;14.30;;;;;;;3.33;69.30;98816.81;4442020;32;35140;-75
2021/12/10 04:36:08;;;;;;;28.67;14.98;;;;;;;3.33;69.60;98822.22;4429162;32;34072;-75
2021/12/10 04:38:42;;;;;;;26.62;14.57;;;;;;;3.39;69.29;98821.50;4429222;32;33303;-75
2021/12/10 04:41:13;;;;;;;31.35;16.15;;;;;;;3.31;69.39;98818.84;4442159;32;33798;-75
2021/12/10 04:43:42;;;;;;;28.85;15.52;;;;;;;3.55;68.87;98832.19;4441657;32;34565;-75
2021/12/10 04:46:10;;;;;;;31.92;15.23;;;;;;;3.69;68.37;98832.38;4428780;32;32473;-75
2021/12/10 04:48:54;;;;;;;31.30;16.15;;;;;;;3.74;68.28;98836.22;4428884;32;31686;-75
2021/12/10 04:51:25;;;;;;;31.42;14.82;;;;;;;3.79;68.24;98835.66;4428674;32;33128;-75
2021/12/10 04:53:54;;;;;;;29.37;15.65;;;;;;;3.42;69.19;98842.81;4455539;32;34628;-75
2021/12/10 04:56:23;;;;;;;30.95;16.35;;;;;;;3.63;68.62;98847.53;4441594;32;33858;-75
2021/12/10 04:58:51;;;;;;;30.55;15.80;;;;;;;3.65;68.62;98845.47;4427470;32;32237;-75
2021/12/10 05:01:22;;;;;;;31.60;15.85;;;;;;;3.80;68.15;98857.19;4428638;32;32930;-75
2021/12/10 05:03:55;;;;;;;31.92;17.60;;;;;;;3.85;68.08;98865.63;4441811;32;34405;-75
2021/12/10 05:06:30;;;;;;;34.00;16.70;;;;;;;3.89;68.08;98875.06;4428675;32;32425;-75
2021/12/10 05:09:05;;;;;;;30.02;15.32;;;;;;;3.94;67.82;98875.34;4441806;32;34035;-75
2021/12/10 05:11:33;;;;;;;30.90;15.80;;;;;;;3.89;68.11;98866.94;4441203;32;33649;-75
2021/12/10 05:14:05;;;;;;;35.83;17.33;;;;;;;3.75;68.62;98865.06;4441535;32;34326;-75
2021/12/10 05:16:38;;;;;;;33.85;17.20;;;;;;;3.87;68.20;98860.84;4441484;32;33859;-75
2021/12/10 05:19:06;;;;;;;32.17;18.02;;;;;;;3.85;68.39;98870.22;4440792;32;32752;-75
2021/12/10 05:21:38;;;;;;;32.50;16.73;;;;;;;3.97;68.19;98863.25;4428550;32;34549;-76
2021/12/10 05:24:11;;;;;;;34.65;17.00;;;;;;;3.91;68.27;98862.12;4428279;32;33036;-75
2021/12/10 05:26:45;;;;;;;36.88;17.30;;;;;;;3.85;68.26;98868.34;4429056;32;33811;-75
2021/12/10 05:29:18;;;;;;;36.13;18.52;;;;;;;4.12;67.57;98860.53;4428888;32;33253;-76
2021/12/10 05:31:51;;;;;;;33.42;17.27;;;;;;;4.04;69.06;98866.06;4428745;32;33747;-75
2021/12/10 05:34:22;;;;;;;35.65;17.17;;;;;;;4.12;68.47;98860.53;4441601;32;34109;-75
2021/12/10 05:36:56;;;;;;;34.58;18.00;;;;;;;4.29;67.78;98865.59;4440979;32;33860;-76
2021/12/10 05:39:26;;;;;;;32.58;17.17;;;;;;;4.33;67.54;98870.66;4442007;32;34073;-76
2021/12/10 05:42:00;;;;;;;35.72;17.08;;;;;;;4.29;67.49;98871.03;4428211;32;32334;-76
2021/12/10 05:44:30;;;;;;;33.33;18.10;;;;;;;4.28;67.59;98868.50;4429260;32;34575;-76
2021/12/10 05:47:07;;;;;;;38.38;18.33;;;;;;;4.35;67.44;98864.00;4441384;32;34647;-76
2021/12/10 05:49:41;;;;;;;34.47;17.85;;;;;;;4.37;67.46;98866.53;4428694;32;32788;-75
2021/12/10 05:52:15;;;;;;;37.88;18.55;;;;;;;4.45;67.09;98860.97;4429071;32;33409;-75
2021/12/10 05:54:45;;;;;;;36.30;17.92;;;;;;;4.47;67.16;98861.62;4441181;32;34411;-76
2021/12/10 05:57:13;;;;;;;36.42;17.90;;;;;;;4.47;67.26;98864.34;4439728;32;33936;-75
2021/12/10 05:59:41;;;;;;;39.03;18.98;;;;;;;4.55;67.15;98861.53;4413692;32;31911;-75
2021/12/10 06:02:08;;;;;;;38.47;19.77;;;;;;;4.64;66.92;98857.63;4428405;32;33642;-75
2021/12/10 06:04:36;;;;;;;42.65;19.92;;;;;;;4.43;67.50;98844.03;4439571;32;32973;-75
2021/12/10 06:07:05;;;;;;;49.17;24.05;;;;;;;4.45;67.37;98839.25;4439841;32;34402;-74
2021/12/10 06:09:33;;;;;;;54.08;24.58;;;;;;;4.45;67.31;98845.53;4440914;32;34120;-75
2021/12/10 06:12:01;;;;;;;52.30;23.50;;;;;;;4.47;67.33;98837.19;4427975;32;32040;-74
2021/12/10 06:14:28;;;;;;;44.13;22.23;;;;;;;4.36;67.50;98833.09;4428155;32;34409;-74
2021/12/10 06:16:56;;;;;;;45.22;21.52;;;;;;;4.44;67.15;98840.28;4414363;32;32263;-75
2021/12/10 06:19:24;;;;;;;42.17;21.00;;;;;;;4.49;67.18;98829.69;4439170;32;33319;-75
2021/12/10 06:21:52;;;;;;;40.42;20.10;;;;;;;4.48;67.15;98830.72;4425782;32;34437;-78
2021/12/10 06:24:22;;;;;;;40.20;18.95;;;;;;;4.54;66.99;98827.25;4426886;32;34020;-72
2021/12/10 06:26:52;;;;;;;41.37;20.40;;;;;;;4.71;66.22;98825.09;4439464;32;32243;-73
2021/12/10 06:29:23;;;;;;;39.65;19.48;;;;;;;4.52;66.53;98824.72;4439654;32;33041;-72
2021/12/10 06:31:52;;;;;;;38.45;19.40;;;;;;;4.60;66.58;98816.41;4425077;32;32180;-74
2021/12/10 06:34:20;;;;;;;47.58;22.60;;;;;;;4.71;66.16;98811.50;4440895;32;35068;-74
2021/12/10 06:36:48;;;;;;;41.03;21.17;;;;;;;4.59;66.76;98819.31;4427750;32;33831;-73
2021/12/10 06:39:20;;;;;;;40.75;19.40;;;;;;;4.56;66.78;98814.28;4415007;32;31820;-73
2021/12/10 06:41:49;;;;;;;41.97;19.87;;;;;;;4.54;66.77;98819.09;4427850;32;32282;-72
2021/12/10 06:44:18;;;;;;;43.60;21.48;;;;;;;4.79;66.36;98836.69;4428442;32;35873;-72
2021/12/10 06:46:46;;;;;;;44.13;21.48;;;;;;;4.64;66.73;98834.00;4440522;32;33053;-72
2021/12/10 06:49:14;;;;;;;43.78;21.77;;;;;;;4.57;67.07;98822.22;4440075;32;33395;-72
2021/12/10 06:51:43;;;;;;;43.17;21.12;;;;;;;4.56;67.03;98831.41;4440374;32;34612;-72
2021/12/10 06:54:11;;;;;;;42.62;20.92;;;;;;;4.66;66.73;98822.97;4427027;32;32936;-72
2021/12/10 06:56:39;;;;;;;38.92;20.08;;;;;;;4.87;66.14;98842.00;4427443;32;32538;-73
2021/12/10 06:59:08;;;;;;;37.88;20.42;;;;;;;5.00;65.87;98852.19;4415249;32;31956;-72
2021/12/10 07:01:39;;;;;;;39.65;19.10;;;;;;;5.10;65.43;98846.41;4427509;32;32686;-73
2021/12/10 07:04:11;;;;;;;39.15;19.23;;;;;;;5.17;65.29;98848.16;4428356;32;34493;-72
2021/12/10 07:06:41;;;;;;;40.38;19.90;;;;;;;5.10;65.59;98849.13;4439440;32;33933;-72
2021/12/10 07:09:20;;;;;;;43.10;20.55;;;;;;;4.69;66.71;98833.44;4427635;32;33227;-72
2021/12/10 07:11:49;;;;;;;38.33;19.87;;;;;;;4.76;66.38;98839.78;4427335;32;33171;-72
2021/12/10 07:14:17;;;;;;;40.78;20.00;;;;;;;4.90;66.08;98836.19;4440312;32;34536;-72
2021/12/10 07:16:46;;;;;;;44.92;21.67;;;;;;;4.88;66.13;98831.97;4427177;32;33573;-73
2021/12/10 07:19:15;;;;;;;39.22;20.80;;;;;;;4.69;66.52;98828.00;4414775;32;31772;-72
2021/12/10 07:21:44;;;;;;;52.75;21.25;;;;;;;4.64;66.73;98823.16;4427515;32;33304;-73
2021/12/10 07:24:16;;;;;;;40.20;21.15;;;;;;;4.48;67.23;98830.72;4427845;32;35300;-72
2021/12/10 07:26:44;;;;;;;38.95;20.45;;;;;;;4.68;66.65;98829.03;4427513;32;32281;-72
2021/12/10 07:29:12;;;;;;;46.35;21.33;;;;;;;4.60;66.63;98829.16;4440370;32;34266;-72
2021/12/10 07:31:42;;;;;;;35.58;18.20;;;;;;;4.47;67.26;98827.16;4427370;32;33568;-72
2021/12/10 07:34:10;;;;;;;43.92;20.50;;;;;;;4.55;66.97;98818.06;4427359;32;34299;-73
2021/12/10 07:36:39;;;;;;;36.67;19.35;;;;;;;4.48;67.31;98811.69;4427131;32;32667;-73
2021/12/10 07:39:08;;;;;;;37.35;19.37;;;;;;;4.76;66.51;98809.91;4440307;32;33399;-73
2021/12/10 07:41:40;;;;;;;36.65;18.58;;;;;;;4.79;66.05;98814.94;4440139;32;34557;-72
2021/12/10 07:44:08;;;;;;;35.53;18.48;;;;;;;4.76;66.02;98814.50;4427391;32;33105;-72
2021/12/10 07:46:36;;;;;;;35.70;17.75;;;;;;;4.81;65.96;98818.31;4427347;32;34689;-73
2021/12/10 07:49:07;;;;;;;38.17;19.25;;;;;;;4.86;65.91;98813.13;4440135;32;33361;-73
2021/12/10 07:51:34;;;;;;;34.20;18.90;;;;;;;4.89;66.18;98799.16;4440378;32;33617;-73
2021/12/10 07:54:02;;;;;;;34.33;17.95;;;;;;;4.83;66.08;98793.66;4439950;32;34416;-73
2021/12/10 07:56:31;;;;;;;36.75;19.37;;;;;;;4.89;65.84;98785.56;4439645;32;33961;-73
2021/12/10 07:59:05;;;;;;;36.92;19.85;;;;;;;4.90;65.89;98786.41;4440013;32;34261;-75
2021/12/10 08:01:46;;;;;;;37.90;19.65;;;;;;;4.96;65.66;98772.88;4427665;32;33781;-76
2021/12/10 08:04:14;;;;;;;46.55;24.48;;;;;;;5.04;65.57;98771.06;4438702;32;34407;-74
2021/12/10 08:06:45;;;;;;;37.33;20.37;;;;;;;5.74;77.67;98772.81;4429452;32;33735;-73
2021/12/10 08:09:16;;;;;;;35.38;19.80;;;;;;;5.81;72.17;98774.53;4441962;32;34274;-73
2021/12/10 08:11:50;;;;;;;38.42;20.58;;;;;;;5.74;70.07;98780.97;4441864;32;33584;-73
2021/12/10 08:14:19;;;;;;;34.58;19.30;;;;;;;5.71;68.21;98775.94;4441585;32;32690;-74
2021/12/10 08:16:53;;;;;;;36.50;18.83;;;;;;;5.61;66.84;98776.28;4416456;32;32400;-75
2021/12/10 08:19:26;;;;;;;38.40;19.15;;;;;;;5.54;65.46;98778.12;4441837;32;33272;-73
2021/12/10 08:21:59;;;;;;;35.45;19.52;;;;;;;5.42;65.16;98782.44;4429201;32;32466;-73
2021/12/10 08:24:29;;;;;;;68.20;33.88;;;;;;;5.52;64.86;98783.75;4455489;32;35429;-73
2021/12/10 08:27:03;;;;;;;51.17;27.15;;;;;;;5.41;65.04;98788.91;4442196;32;33854;-74
2021/12/10 08:29:34;;;;;;;40.15;22.45;;;;;;;5.49;64.86;98795.03;4428999;32;31749;-73
2021/12/10 08:32:08;;;;;;;110.22;53.03;;;;;;;5.55;64.70;98796.13;4441645;32;33090;-73
2021/12/10 08:34:35;;;;;;;47.40;27.13;;;;;;;5.50;64.61;98798.59;4441402;32;33961;-73
2021/12/10 08:37:08;;;;;;;43.55;23.17;;;;;;;5.05;65.18;98795.34;4441793;32;33842;-73
2021/12/10 08:39:41;;;;;;;44.60;21.95;;;;;;;5.26;64.84;98803.44;4441734;32;33212;-73
2021/12/10 08:42:12;;;;;;;41.20;20.27;;;;;;;5.20;65.27;98798.78;4441608;32;32296;-73
2021/12/10 08:44:46;;;;;;;43.38;21.67;;;;;;;5.09;65.57;98799.34;4428947;32;32752;-73
2021/12/10 08:47:20;;;;;;;52.45;25.67;;;;;;;5.27;65.07;98804.28;4441886;32;33768;-73
2021/12/10 08:49:56;;;;;;;41.45;19.80;;;;;;;5.31;65.33;98797.41;4429183;32;33244;-73
2021/12/10 08:52:33;;;;;;;43.92;21.20;;;;;;;5.24;65.55;98800.06;4429014;32;32279;-73
2021/12/10 08:55:05;;;;;;;35.90;19.48;;;;;;;5.46;65.02;98792.72;4416540;32;33937;-73
2021/12/10 08:57:33;;;;;;;39.00;21.33;;;;;;;5.51;64.90;98782.09;4429057;32;33876;-73
2021/12/10 09:00:03;;;;;;;40.58;23.10;;;;;;;5.26;65.45;98798.00;4428964;32;33306;-73
2021/12/10 09:02:38;;;;;;;51.75;27.13;;;;;;;5.53;64.95;98792.78;4429068;32;33557;-73
2021/12/10 09:05:09;;;;;;;42.03;21.27;;;;;;;5.74;64.70;98792.69;4441528;32;35112;-73
2021/12/10 09:07:38;;;;;;;45.33;21.80;;;;;;;5.76;64.60;98787.91;4441667;32;34617;-73
2021/12/10 09:10:08;;;;;;;44.20;22.92;;;;;;;5.77;64.60;98794.19;4441453;32;33747;-73
2021/12/10 09:12:36;;;;;;;39.95;20.55;;;;;;;5.76;64.45;98798.78;4441668;32;34495;-72
2021/12/10 09:15:09;;;;;;;56.00;20.60;;;;;;;5.77;64.66;98797.75;4441431;32;34330;-73
2021/12/10 09:17:49;;;;;;;33.50;16.75;;;;;;;6.04;64.98;98801.47;4441364;32;34597;-73
2021/12/10 09:20:22;;;;;;;35.60;18.80;;;;;;;6.02;66.79;98800.84;4428611;32;31850;-72
2021/12/10 09:22:50;;;;;;;38.22;18.83;;;;;;;5.99;64.62;98798.50;4428544;32;33658;-73
2021/12/10 09:25:21;;;;;;;36.65;17.62;;;;;;;6.23;63.41;98803.44;4441446;32;34453;-73
2021/12/10 09:27:57;;;;;;;34.50;16.65;;;;;;;6.09;63.44;98798.97;4441147;32;33126;-73
2021/12/10 09:30:32;;;;;;;34.03;17.83;;;;;;;6.03;63.27;98802.50;4429151;32;32027;-73
2021/12/10 09:33:08;;;;;;;40.53;19.75;;;;;;;6.01;63.11;98799.16;4441259;32;32149;-73
2021/12/10 09:35:40;;;;;;;35.83;18.23;;;;;;;6.15;62.81;98802.78;4442011;32;35032;-73
2021/12/10 09:38:08;;;;;;;32.25;15.95;;;;;;;6.28;62.52;98800.12;4441362;32;34541;-73
2021/12/10 09:40:46;;;;;;;33.20;17.08;;;;;;;6.32;62.60;98795.09;4428516;32;31878;-73
2021/12/10 09:43:21;;;;;;;37.15;18.50;;;;;;;6.20;62.93;98792.97;4441615;32;34601;-73
2021/12/10 09:45:52;;;;;;;31.30;16.10;;;;;;;6.20;63.07;98792.97;4441185;32;35427;-73
2021/12/10 09:48:24;;;;;;;30.73;16.12;;;;;;;6.24;62.63;98801.56;4441230;32;33971;-73
2021/12/10 09:50:59;;;;;;;29.73;16.15;;;;;;;6.27;62.55;98795.72;4438393;32;33390;-73
2021/12/10 09:53:29;;;;;;;32.72;16.15;;;;;;;6.38;62.61;98799.75;4428141;32;33292;-73
2021/12/10 09:55:57;;;;;;;31.00;16.83;;;;;;;6.41;62.42;98796.63;4428295;32;32879;-72
2021/12/10 09:58:25;;;;;;;27.40;15.45;;;;;;;6.39;62.51;98801.44;4440740;32;34715;-73
2021/12/10 10:00:56;;;;;;;27.25;14.68;;;;;;;6.53;61.78;98798.50;4440990;32;33228;-73
2021/12/10 10:03:31;;;;;;;27.45;15.35;;;;;;;6.33;62.80;98804.97;4440712;32;32474;-73
2021/12/10 10:06:01;;;;;;;24.52;13.90;;;;;;;6.32;62.50;98803.28;4440582;32;35532;-73
2021/12/10 10:08:32;;;;;;;23.25;12.95;;;;;;;6.61;61.53;98806.50;4440267;32;33866;-73
2021/12/10 10:11:16;;;;;;;21.48;12.43;;;;;;;6.46;61.83;98799.56;4441433;32;33410;-73
2021/12/10 10:13:47;;;;;;;17.80;9.95;;;;;;;6.61;61.33;98811.13;4441610;32;34569;-73
2021/12/10 10:16:20;;;;;;;17.52;9.63;;;;;;;6.71;60.80;98805.28;4415720;32;33310;-73
2021/12/10 10:18:51;;;;;;;19.83;10.45;;;;;;;6.52;60.65;98798.72;4440958;32;33803;-73
2021/12/10 10:21:22;;;;;;;20.35;11.57;;;;;;;6.71;59.47;98789.75;4441376;32;33492;-73
2021/12/10 10:23:51;;;;;;;16.12;9.00;;;;;;;6.59;59.80;98796.84;4441148;32;33683;-73
2021/12/10 10:26:31;;;;;;;17.50;10.23;;;;;;;6.60;60.03;98788.47;4441084;32;34274;-73
2021/12/10 10:29:09;;;;;;;16.92;9.05;;;;;;;6.58;60.22;98787.00;4428064;32;34694;-73
2021/12/10 10:31:39;;;;;;;15.43;8.63;;;;;;;6.52;59.98;98775.03;4440588;32;33082;-73
2021/12/10 10:34:11;;;;;;;20.58;11.23;;;;;;;6.69;59.76;98770.03;4440762;32;33172;-73
2021/12/10 10:36:41;;;;;;;19.00;11.00;;;;;;;6.54;60.43;98764.75;4441533;32;34114;-73
2021/12/10 10:39:17;;;;;;;22.33;11.95;;;;;;;6.71;59.88;98762.50;4428624;32;33873;-73
2021/12/10 10:41:51;;;;;;;29.95;20.58;;;;;;;6.76;59.80;98754.53;4427853;32;31907;-73
2021/12/10 10:44:22;;;;;;;27.27;16.10;;;;;;;6.70;60.25;98755.34;4427748;32;33107;-73
2021/12/10 10:46:55;;;;;;;28.60;17.17;;;;;;;6.62;61.01;98747.38;4428217;32;34380;-73
2021/12/10 10:49:41;;;;;;;32.75;17.62;;;;;;;6.62;61.44;98745.50;4440747;32;34668;-73
2021/12/10 10:52:29;;;;;;;36.60;19.27;;;;;;;6.54;61.90;98745.69;4440543;32;33358;-73
2021/12/10 10:55:18;;;;;;;39.78;21.42;;;;;;;6.36;62.45;98736.44;4440893;32;33627;-73
2021/12/10 10:58:03;;;;;;;43.60;21.90;;;;;;;6.58;61.79;98724.28;4427887;32;33849;-72
2021/12/10 11:00:59;;;;;;;38.90;21.25;;;;;;;6.34;62.64;98722.16;4440781;32;34736;-73
2021/12/10 11:03:58;;;;;;;;;;;;;;;6.43;62.31;98727.22;4430313;32;32885;-73
2021/12/10 11:06:41;;;;;;;38.33;21.62;;;;;;;6.56;62.26;98727.22;4440484;32;33336;-72
2021/12/10 11:09:11;;;;;;;41.65;22.55;;;;;;;6.53;62.52;98724.06;4440211;32;34536;-73
2021/12/10 11:12:04;;;;;;;42.03;22.48;;;;;;;6.45;62.55;98719.69;4454357;32;33826;-72
2021/12/10 11:14:38;;;;;;;40.20;21.35;;;;;;;6.26;62.58;98715.88;4440380;32;33224;-73
2021/12/10 11:17:23;;;;;;;42.85;23.77;;;;;;;6.31;62.52;98711.69;4440751;32;33557;-73
2021/12/10 11:20:09;;;;;;;46.15;22.98;;;;;;;6.46;62.70;98709.62;4428441;32;34373;-73
2021/12/10 11:22:53;;;;;;;40.90;22.62;;;;;;;6.51;62.84;98696.19;4427874;32;33457;-73
2021/12/10 11:25:31;;;;;;;47.08;24.65;;;;;;;6.47;63.04;98703.13;4440610;32;33393;-73
2021/12/10 11:28:15;;;;;;;48.72;24.08;;;;;;;6.38;63.00;98710.66;4427671;32;32405;-73
2021/12/10 11:30:52;;;;;;;43.75;23.75;;;;;;;6.43;63.04;98712.75;4427237;32;32949;-73
2021/12/10 11:33:25;;;;;;;41.50;22.92;;;;;;;6.40;63.09;98715.91;4425080;32;34560;-73
2021/12/10 11:36:00;;;;;;;44.47;25.00;;;;;;;6.45;62.86;98708.78;4429231;32;34177;-73
2021/12/10 11:38:32;;;;;;;42.78;24.27;;;;;;;6.30;63.16;98704.56;4439533;32;33531;-73
2021/12/10 11:41:09;;;;;;;45.05;24.02;;;;;;;6.31;63.12;98707.06;4439164;32;34379;-73
2021/12/10 11:47:25;;;;;;;43.87;25.17;;;;;;;6.20;63.49;98700.34;4439829;32;34086;-74
2021/12/10 11:49:58;;;;;;;41.95;24.02;;;;;;;6.50;62.59;98698.06;4439949;32;108450;-73
2021/12/10 11:52:29;;;;;;;53.72;25.27;;;;;;;6.50;62.76;98702.72;4437696;32;35142;-74
2021/12/10 11:55:07;;;;;;;45.72;24.08;;;;;;;6.42;64.21;98705.63;4437646;32;33901;-75
2021/12/10 11:57:39;;;;;;;67.03;34.55;;;;;;;6.38;63.92;98707.09;4437930;32;33541;-73
2021/12/10 12:00:23;;;;;;;44.05;24.70;;;;;;;6.42;63.46;98711.94;4437512;32;34580;-74
2021/12/10 12:03:03;;;;;;;42.95;23.25;;;;;;;6.65;62.71;98700.63;4437460;32;34381;-71
2021/12/10 12:05:37;;;;;;;47.13;26.33;;;;;;;6.61;68.87;98694.75;4420995;32;33375;-73
2021/12/10 12:08:12;;;;;;;41.25;22.60;;;;;;;6.86;69.36;98689.50;4415371;32;33744;-73